sensor_id;sensor_type;location;lat;lon;timestamp;pressure;altitude;pressure_sealevel;temperature;humidity
7836;BME280;3963;42.658;23.298;2023-05-19T00:02:21;46826.81;;;-144.44;100.00
7836;BME280;3963;42.658;23.298;2023-05-19T00:04:52;46820.91;;;-144.44;100.00
7836;BME280;3963;42.658;23.298;2023-05-19T00:07:22;46907.88;;;-144.44;100.00
7836;BME280;3963;42.658;23.298;2023-05-19T00:09:51;46830.78;;;-144.44;100.00
7836;BME280;3963;42.658;23.298;2023-05-19T00:12:19;46805.06;;;-144.44;100.00
7836;BME280;3963;42.658;23.298;2023-05-19T00:14:46;46826.81;;;-144.44;100.00
7836;BME280;3963;42.658;23.298;2023-05-19T00:17:13;46769.50;;;-144.44;100.00
7836;BME280;3963;42.658;23.298;2023-05-19T00:19:41;46785.31;;;-144.44;100.00
7836;BME280;3963;42.658;23.298;2023-05-19T00:22:11;46579.69;;;-144.44;100.00
7836;BME280;3963;42.658;23.298;2023-05-19T00:24:37;46666.69;;;-144.44;100.00
7836;BME280;3963;42.658;23.298;2023-05-19T00:27:04;46611.31;;;-144.44;100.00
7836;BME280;3963;42.658;23.298;2023-05-19T00:29:31;46563.88;;;-144.44;100.00
7836;BME280;3963;42.658;23.298;2023-05-19T00:31:57;46524.31;;;-144.44;100.00
7836;BME280;3963;42.658;23.298;2023-05-19T00:34:24;46502.56;;;-144.44;100.00
7836;BME280;3963;42.658;23.298;2023-05-19T00:36:51;46283.13;;;-144.44;100.00
7836;BME280;3963;42.658;23.298;2023-05-19T00:39:19;46322.69;;;-144.44;100.00
7836;BME280;3963;42.658;23.298;2023-05-19T00:41:46;46322.69;;;-144.44;100.00
7836;BME280;3963;42.658;23.298;2023-05-19T00:44:13;46251.50;;;-144.44;100.00
7836;BME280;3963;42.658;23.298;2023-05-19T00:46:40;46275.22;;;-144.44;100.00
7836;BME280;3963;42.658;23.298;2023-05-19T00:49:07;46219.88;;;-144.44;100.00
7836;BME280;3963;42.658;23.298;2023-05-19T00:51:34;46196.16;;;-144.44;100.00
7836;BME280;3963;42.658;23.298;2023-05-19T00:54:02;46231.75;;;-144.44;100.00
7836;BME280;3963;42.658;23.298;2023-05-19T00:56:30;46217.91;;;-144.44;100.00
7836;BME280;3963;42.658;23.298;2023-05-19T00:58:58;46243.59;;;-144.44;100.00
7836;BME280;3963;42.658;23.298;2023-05-19T01:01:25;46202.09;;;-144.44;100.00
7836;BME280;3963;42.658;23.298;2023-05-19T01:03:52;46239.66;;;-144.44;100.00
7836;BME280;3963;42.658;23.298;2023-05-19T01:06:20;46152.66;;;-144.44;100.00
7836;BME280;3963;42.658;23.298;2023-05-19T01:08:47;46093.38;;;-144.44;100.00
7836;BME280;3963;42.658;23.298;2023-05-19T01:11:15;46089.41;;;-144.44;100.00
7836;BME280;3963;42.658;23.298;2023-05-19T01:13:44;46174.41;;;-144.44;100.00
7836;BME280;3963;42.658;23.298;2023-05-19T01:16:15;46287.09;;;-144.44;100.00
7836;BME280;3963;42.658;23.298;2023-05-19T01:18:51;46358.25;;;-144.44;100.00
7836;BME280;3963;42.658;23.298;2023-05-19T01:21:45;46453.16;;;-144.44;100.00
7836;BME280;3963;42.658;23.298;2023-05-19T01:24:28;46380.00;;;-144.44;100.00
7836;BME280;3963;42.658;23.298;2023-05-19T01:27:21;46553.97;;;-144.44;100.00
7836;BME280;3963;42.658;23.298;2023-05-19T01:30:17;46644.94;;;-144.44;100.00
7836;BME280;3963;42.658;23.298;2023-05-19T01:32:52;46708.19;;;-144.44;100.00
7836;BME280;3963;42.658;23.298;2023-05-19T01:35:22;46820.91;;;-144.44;100.00
7836;BME280;3963;42.658;23.298;2023-05-19T01:37:51;46816.94;;;-144.44;100.00
7836;BME280;3963;42.658;23.298;2023-05-19T01:40:21;46937.56;;;-144.44;100.00
7836;BME280;3963;42.658;23.298;2023-05-19T01:42:49;47093.75;;;-144.44;100.00
7836;BME280;3963;42.658;23.298;2023-05-19T01:45:18;46898.00;;;-144.44;100.00
7836;BME280;3963;42.658;23.298;2023-05-19T01:47:48;46957.31;;;-144.44;100.00
7836;BME280;3963;42.658;23.298;2023-05-19T01:50:15;46937.56;;;-144.44;100.00
7836;BME280;3963;42.658;23.298;2023-05-19T01:52:42;46903.94;;;-144.44;100.00
7836;BME280;3963;42.658;23.298;2023-05-19T01:55:09;46874.28;;;-144.44;100.00
7836;BME280;3963;42.658;23.298;2023-05-19T01:57:43;46931.63;;;-144.44;100.00
7836;BME280;3963;42.658;23.298;2023-05-19T02:00:17;46967.22;;;-144.44;100.00
7836;BME280;3963;42.658;23.298;2023-05-19T02:02:54;47129.34;;;-144.44;100.00
7836;BME280;3963;42.658;23.298;2023-05-19T02:05:30;47208.44;;;-144.44;100.00
7836;BME280;3963;42.658;23.298;2023-05-19T02:08:05;47321.16;;;-144.44;100.00
7836;BME280;3963;42.658;23.298;2023-05-19T02:10:39;47481.34;;;-144.44;100.00
7836;BME280;3963;42.658;23.298;2023-05-19T02:13:10;47704.81;;;-144.44;100.00
7836;BME280;3963;42.658;23.298;2023-05-19T02:15:40;47463.53;;;-144.44;100.00
7836;BME280;3963;42.658;23.298;2023-05-19T02:18:10;47473.44;;;-144.44;100.00
7836;BME280;3963;42.658;23.298;2023-05-19T02:20:37;47663.28;;;-144.44;100.00
7836;BME280;3963;42.658;23.298;2023-05-19T02:23:04;47346.88;;;-144.44;100.00
7836;BME280;3963;42.658;23.298;2023-05-19T02:25:31;47336.97;;;-144.44;100.00
7836;BME280;3963;42.658;23.298;2023-05-19T02:27:58;47540.66;;;-144.44;100.00
7836;BME280;3963;42.658;23.298;2023-05-19T02:30:25;47645.47;;;-144.44;100.00
7836;BME280;3963;42.658;23.298;2023-05-19T02:32:52;47764.13;;;-144.44;100.00
7836;BME280;3963;42.658;23.298;2023-05-19T02:35:21;47847.22;;;-144.44;100.00
7836;BME280;3963;42.658;23.298;2023-05-19T02:37:47;47868.97;;;-144.44;100.00
7836;BME280;3963;42.658;23.298;2023-05-19T02:40:14;47932.25;;;-144.44;100.00
7836;BME280;3963;42.658;23.298;2023-05-19T02:42:41;48027.19;;;-144.44;100.00
7836;BME280;3963;42.658;23.298;2023-05-19T02:45:08;48084.56;;;-144.44;100.00
7836;BME280;3963;42.658;23.298;2023-05-19T02:47:35;48298.16;;;-144.44;100.00
7836;BME280;3963;42.658;23.298;2023-05-19T02:50:03;48430.72;;;-144.44;100.00
7836;BME280;3963;42.658;23.298;2023-05-19T02:52:33;48537.53;;;-144.44;100.00
7836;BME280;3963;42.658;23.298;2023-05-19T02:54:59;48434.66;;;-144.44;100.00
7836;BME280;3963;42.658;23.298;2023-05-19T02:57:28;48521.69;;;-144.44;100.00
7836;BME280;3963;42.658;23.298;2023-05-19T02:59:55;48739.31;;;-144.44;100.00
7836;BME280;3963;42.658;23.298;2023-05-19T03:02:22;48717.53;;;-144.44;100.00
7836;BME280;3963;42.658;23.298;2023-05-19T03:04:50;48743.25;;;-144.44;100.00
7836;BME280;3963;42.658;23.298;2023-05-19T03:07:17;48798.66;;;-144.44;100.00
7836;BME280;3963;42.658;23.298;2023-05-19T03:09:50;48767.00;;;-144.44;100.00
7836;BME280;3963;42.658;23.298;2023-05-19T03:12:17;48949.00;;;-144.44;100.00
7836;BME280;3963;42.658;23.298;2023-05-19T03:14:45;48992.53;;;-144.44;100.00
7836;BME280;3963;42.658;23.298;2023-05-19T03:17:12;48838.22;;;-144.44;100.00
7836;BME280;3963;42.658;23.298;2023-05-19T03:19:39;48913.41;;;-144.44;100.00
7836;BME280;3963;42.658;23.298;2023-05-19T03:22:06;49146.88;;;-144.44;100.00
7836;BME280;3963;42.658;23.298;2023-05-19T03:24:33;48994.53;;;-144.44;100.00
7836;BME280;3963;42.658;23.298;2023-05-19T03:27:02;49172.59;;;-144.44;100.00
7836;BME280;3963;42.658;23.298;2023-05-19T03:29:29;49174.56;;;-144.44;100.00
7836;BME280;3963;42.658;23.298;2023-05-19T03:31:56;49113.22;;;-144.44;100.00
7836;BME280;3963;42.658;23.298;2023-05-19T03:34:24;48978.69;;;-144.44;100.00
7836;BME280;3963;42.658;23.298;2023-05-19T03:36:51;49014.31;;;-144.44;100.00
7836;BME280;3963;42.658;23.298;2023-05-19T03:39:17;48945.06;;;-144.44;100.00
7836;BME280;3963;42.658;23.298;2023-05-19T03:41:44;48755.13;;;-144.44;100.00
7836;BME280;3963;42.658;23.298;2023-05-19T03:44:13;49020.25;;;-144.44;100.00
7836;BME280;3963;42.658;23.298;2023-05-19T03:46:40;48947.03;;;-144.44;100.00
7836;BME280;3963;42.658;23.298;2023-05-19T03:49:07;48725.47;;;-144.44;100.00
7836;BME280;3963;42.658;23.298;2023-05-19T03:51:35;48731.41;;;-144.44;100.00
7836;BME280;3963;42.658;23.298;2023-05-19T03:54:02;48618.63;;;-144.44;100.00
7836;BME280;3963;42.658;23.298;2023-05-19T03:56:30;48822.41;;;-144.44;100.00
7836;BME280;3963;42.658;23.298;2023-05-19T03:58:57;48525.66;;;-144.44;100.00
7836;BME280;3963;42.658;23.298;2023-05-19T04:01:25;47841.28;;;-144.44;100.00
7836;BME280;3963;42.658;23.298;2023-05-19T04:03:52;47552.53;;;-144.44;100.00
7836;BME280;3963;42.658;23.298;2023-05-19T04:06:18;47825.44;;;-144.44;100.00
7836;BME280;3963;42.658;23.298;2023-05-19T04:08:46;47704.81;;;-144.44;100.00
7836;BME280;3963;42.658;23.298;2023-05-19T04:11:13;47526.81;;;-144.44;100.00
7836;BME280;3963;42.658;23.298;2023-05-19T04:13:39;47431.91;;;-144.44;100.00
7836;BME280;3963;42.658;23.298;2023-05-19T04:16:06;47503.09;;;-144.44;100.00
7836;BME280;3963;42.658;23.298;2023-05-19T04:18:34;47362.69;;;-144.44;100.00
7836;BME280;3963;42.658;23.298;2023-05-19T04:21:01;47236.13;;;-144.44;100.00
7836;BME280;3963;42.658;23.298;2023-05-19T04:23:28;47364.66;;;-144.44;100.00
7836;BME280;3963;42.658;23.298;2023-05-19T04:25:56;47325.13;;;-144.44;100.00
7836;BME280;3963;42.658;23.298;2023-05-19T04:28:23;47208.44;;;-144.44;100.00
7836;BME280;3963;42.658;23.298;2023-05-19T04:30:50;46884.16;;;-144.44;100.00
7836;BME280;3963;42.658;23.298;2023-05-19T04:33:17;46840.66;;;-144.44;100.00
7836;BME280;3963;42.658;23.298;2023-05-19T04:35:46;46567.81;;;-144.44;100.00
7836;BME280;3963;42.658;23.298;2023-05-19T04:38:14;46474.91;;;-144.44;100.00
7836;BME280;3963;42.658;23.298;2023-05-19T04:40:43;46457.09;;;-144.44;100.00
7836;BME280;3963;42.658;23.298;2023-05-19T04:43:09;46500.59;;;-144.44;100.00
7836;BME280;3963;42.658;23.298;2023-05-19T04:45:36;46389.91;;;-144.44;100.00
7836;BME280;3963;42.658;23.298;2023-05-19T04:48:06;46168.47;;;-144.44;100.00
7836;BME280;3963;42.658;23.298;2023-05-19T04:50:33;46225.81;;;-144.44;100.00
7836;BME280;3963;42.658;23.298;2023-05-19T04:53:04;46158.59;;;-144.44;100.00
7836;BME280;3963;42.658;23.298;2023-05-19T04:55:31;46186.28;;;-144.44;100.00
7836;BME280;3963;42.658;23.298;2023-05-19T04:57:58;46148.72;;;-144.44;100.00
7836;BME280;3963;42.658;23.298;2023-05-19T05:00:25;46164.53;;;-144.44;100.00
7836;BME280;3963;42.658;23.298;2023-05-19T05:02:52;46168.47;;;-144.44;100.00
7836;BME280;3963;42.658;23.298;2023-05-19T05:05:21;46109.19;;;-144.44;100.00
7836;BME280;3963;42.658;23.298;2023-05-19T05:07:48;46115.09;;;-144.44;100.00
7836;BME280;3963;42.658;23.298;2023-05-19T05:10:16;46089.41;;;-144.44;100.00
7836;BME280;3963;42.658;23.298;2023-05-19T05:12:44;46079.53;;;-144.44;100.00
7836;BME280;3963;42.658;23.298;2023-05-19T05:15:11;46057.78;;;-144.44;100.00
7836;BME280;3963;42.658;23.298;2023-05-19T05:17:39;45972.78;;;-144.44;100.00
7836;BME280;3963;42.658;23.298;2023-05-19T05:20:07;45939.19;;;-144.44;100.00
7836;BME280;3963;42.658;23.298;2023-05-19T05:22:34;45964.88;;;-144.44;100.00
7836;BME280;3963;42.658;23.298;2023-05-19T05:25:03;45871.97;;;-144.44;100.00
7836;BME280;3963;42.658;23.298;2023-05-19T05:27:32;45836.41;;;-144.44;100.00
7836;BME280;3963;42.658;23.298;2023-05-19T05:30:00;45796.88;;;-144.44;100.00
7836;BME280;3963;42.658;23.298;2023-05-19T05:32:28;45761.28;;;-144.44;100.00
7836;BME280;3963;42.658;23.298;2023-05-19T05:34:55;45715.81;;;-144.44;100.00
7836;BME280;3963;42.658;23.298;2023-05-19T05:37:23;45719.78;;;-144.44;100.00
7836;BME280;3963;42.658;23.298;2023-05-19T05:39:50;45670.38;;;-144.44;100.00
7836;BME280;3963;42.658;23.298;2023-05-19T05:42:17;45615.03;;;-144.44;100.00
7836;BME280;3963;42.658;23.298;2023-05-19T05:44:46;45595.25;;;-144.44;100.00
7836;BME280;3963;42.658;23.298;2023-05-19T05:47:14;45561.66;;;-144.44;100.00
7836;BME280;3963;42.658;23.298;2023-05-19T05:49:43;45520.16;;;-144.44;100.00
7836;BME280;3963;42.658;23.298;2023-05-19T05:52:14;45526.09;;;-144.44;100.00
7836;BME280;3963;42.658;23.298;2023-05-19T05:54:42;45589.34;;;-144.44;100.00
7836;BME280;3963;42.658;23.298;2023-05-19T05:57:10;45535.97;;;-144.44;100.00
7836;BME280;3963;42.658;23.298;2023-05-19T05:59:37;45518.19;;;-144.44;100.00
7836;BME280;3963;42.658;23.298;2023-05-19T06:02:06;45496.44;;;-144.44;100.00
7836;BME280;3963;42.658;23.298;2023-05-19T06:04:34;45535.97;;;-144.44;100.00
7836;BME280;3963;42.658;23.298;2023-05-19T06:07:01;45510.28;;;-144.44;100.00
7836;BME280;3963;42.658;23.298;2023-05-19T06:09:28;45488.53;;;-144.44;100.00
7836;BME280;3963;42.658;23.298;2023-05-19T06:11:57;45496.44;;;-144.44;100.00
7836;BME280;3963;42.658;23.298;2023-05-19T06:14:23;45492.47;;;-144.44;100.00
7836;BME280;3963;42.658;23.298;2023-05-19T06:16:50;45508.28;;;-144.44;100.00
7836;BME280;3963;42.658;23.298;2023-05-19T06:19:20;45449.00;;;-144.44;100.00
7836;BME280;3963;42.658;23.298;2023-05-19T06:21:49;45407.50;;;-144.44;100.00
7836;BME280;3963;42.658;23.298;2023-05-19T06:24:16;45427.25;;;-144.44;100.00
7836;BME280;3963;42.658;23.298;2023-05-19T06:26:43;45409.47;;;-144.44;100.00
7836;BME280;3963;42.658;23.298;2023-05-19T06:29:11;45419.34;;;-144.44;100.00
7836;BME280;3963;42.658;23.298;2023-05-19T06:31:38;45401.56;;;-144.44;100.00
7836;BME280;3963;42.658;23.298;2023-05-19T06:34:05;45393.66;;;-144.44;100.00
7836;BME280;3963;42.658;23.298;2023-05-19T06:36:35;45409.47;;;-144.44;100.00
7836;BME280;3963;42.658;23.298;2023-05-19T06:39:03;45409.47;;;-144.44;100.00
7836;BME280;3963;42.658;23.298;2023-05-19T06:41:31;45405.53;;;-144.44;100.00
7836;BME280;3963;42.658;23.298;2023-05-19T06:43:59;45373.91;;;-144.44;100.00
7836;BME280;3963;42.658;23.298;2023-05-19T06:46:26;45350.19;;;-144.44;100.00
7836;BME280;3963;42.658;23.298;2023-05-19T06:48:54;45369.94;;;-144.44;100.00
7836;BME280;3963;42.658;23.298;2023-05-19T06:51:20;45330.44;;;-144.44;100.00
7836;BME280;3963;42.658;23.298;2023-05-19T06:53:50;45358.09;;;-144.44;100.00
7836;BME280;3963;42.658;23.298;2023-05-19T06:56:17;45316.59;;;-144.44;100.00
7836;BME280;3963;42.658;23.298;2023-05-19T06:58:44;45286.94;;;-144.44;98.72
7836;BME280;3963;42.658;23.298;2023-05-19T07:01:12;45294.84;;;-144.44;98.09
7836;BME280;3963;42.658;23.298;2023-05-19T07:03:40;45290.91;;;-144.44;94.19
7836;BME280;3963;42.658;23.298;2023-05-19T07:06:08;45286.94;;;-144.44;92.68
7836;BME280;3963;42.658;23.298;2023-05-19T07:08:35;45310.66;;;-144.44;94.63
7836;BME280;3963;42.658;23.298;2023-05-19T07:11:05;45294.84;;;-144.44;93.45
7836;BME280;3963;42.658;23.298;2023-05-19T07:13:36;45296.81;;;-144.44;88.75
7836;BME280;3963;42.658;23.298;2023-05-19T07:16:04;45284.97;;;-144.44;88.59
7836;BME280;3963;42.658;23.298;2023-05-19T07:18:31;45283.00;;;-144.44;88.93
7836;BME280;3963;42.658;23.298;2023-05-19T07:20:59;45279.03;;;-144.44;86.30
7836;BME280;3963;42.658;23.298;2023-05-19T07:23:26;45290.91;;;-144.44;85.97
7836;BME280;3963;42.658;23.298;2023-05-19T07:25:53;45296.81;;;-144.44;85.39
7836;BME280;3963;42.658;23.298;2023-05-19T07:28:22;45322.53;;;-144.44;84.76
7836;BME280;3963;42.658;23.298;2023-05-19T07:30:49;45292.88;;;-144.44;84.74
7836;BME280;3963;42.658;23.298;2023-05-19T07:33:17;45332.41;;;-144.44;79.44
7836;BME280;3963;42.658;23.298;2023-05-19T07:35:44;45342.28;;;-144.44;77.53
7836;BME280;3963;42.658;23.298;2023-05-19T07:38:11;45310.66;;;-144.44;78.56
7836;BME280;3963;42.658;23.298;2023-05-19T07:40:38;45322.53;;;-144.44;80.26
7836;BME280;3963;42.658;23.298;2023-05-19T07:43:05;45296.81;;;-144.44;79.69
7836;BME280;3963;42.658;23.298;2023-05-19T07:45:34;45326.47;;;-144.44;76.31
7836;BME280;3963;42.658;23.298;2023-05-19T07:48:01;45312.63;;;-144.44;73.08
7836;BME280;3963;42.658;23.298;2023-05-19T07:50:27;45322.53;;;-144.44;72.91
7836;BME280;3963;42.658;23.298;2023-05-19T07:52:54;45344.25;;;-144.44;70.71
7836;BME280;3963;42.658;23.298;2023-05-19T07:55:21;45366.00;;;-144.44;68.44
7836;BME280;3963;42.658;23.298;2023-05-19T07:57:48;45379.84;;;-144.44;65.30
7836;BME280;3963;42.658;23.298;2023-05-19T08:00:16;45456.91;;;-144.44;63.83
7836;BME280;3963;42.658;23.298;2023-05-19T08:02:44;45425.28;;;-144.44;61.39
7836;BME280;3963;42.658;23.298;2023-05-19T08:05:11;45435.16;;;-144.44;62.99
7836;BME280;3963;42.658;23.298;2023-05-19T08:07:38;45449.00;;;-144.44;60.39
7836;BME280;3963;42.658;23.298;2023-05-19T08:10:05;45449.00;;;-144.44;61.02
7836;BME280;3963;42.658;23.298;2023-05-19T08:12:33;45441.09;;;-144.44;59.86
7836;BME280;3963;42.658;23.298;2023-05-19T08:15:00;45397.63;;;-144.44;60.77
7836;BME280;3963;42.658;23.298;2023-05-19T08:17:27;45409.47;;;-144.44;61.47
7836;BME280;3963;42.658;23.298;2023-05-19T08:19:55;45423.31;;;-144.44;61.57
7836;BME280;3963;42.658;23.298;2023-05-19T08:22:22;45421.34;;;-144.44;62.37
7836;BME280;3963;42.658;23.298;2023-05-19T08:24:49;45429.25;;;-144.44;60.14
7836;BME280;3963;42.658;23.298;2023-05-19T08:27:17;45419.34;;;-144.44;60.04
7836;BME280;3963;42.658;23.298;2023-05-19T08:29:47;45413.44;;;-144.44;61.92
7836;BME280;3963;42.658;23.298;2023-05-19T08:32:14;45395.66;;;-144.44;61.96
7836;BME280;3963;42.658;23.298;2023-05-19T08:34:41;45405.53;;;-144.44;62.39
7836;BME280;3963;42.658;23.298;2023-05-19T08:37:10;45425.28;;;-144.44;59.07
7836;BME280;3963;42.658;23.298;2023-05-19T08:39:37;45441.09;;;-144.44;59.93
7836;BME280;3963;42.658;23.298;2023-05-19T08:42:05;45492.47;;;-144.44;59.49
7836;BME280;3963;42.658;23.298;2023-05-19T08:44:34;45532.00;;;-144.44;55.54
7836;BME280;3963;42.658;23.298;2023-05-19T08:47:03;45532.00;;;-144.44;55.54
7836;BME280;3963;42.658;23.298;2023-05-19T08:49:34;45543.88;;;-144.44;55.05
7836;BME280;3963;42.658;23.298;2023-05-19T08:52:12;45528.06;;;-144.44;55.00
7836;BME280;3963;42.658;23.298;2023-05-19T08:54:45;45532.00;;;-144.44;53.78
7836;BME280;3963;42.658;23.298;2023-05-19T08:57:16;45502.38;;;-144.44;54.48
7836;BME280;3963;42.658;23.298;2023-05-19T08:59:43;45484.56;;;-144.44;55.26
7836;BME280;3963;42.658;23.298;2023-05-19T09:02:11;45472.72;;;-144.44;55.57
7836;BME280;3963;42.658;23.298;2023-05-19T09:04:40;45476.66;;;-144.44;56.24
7836;BME280;3963;42.658;23.298;2023-05-19T09:07:12;45508.28;;;-144.44;53.39
7836;BME280;3963;42.658;23.298;2023-05-19T09:09:40;45488.53;;;-144.44;53.84
7836;BME280;3963;42.658;23.298;2023-05-19T09:12:08;45466.78;;;-144.44;53.11
7836;BME280;3963;42.658;23.298;2023-05-19T09:14:37;45423.31;;;-144.44;55.30
7836;BME280;3963;42.658;23.298;2023-05-19T09:17:05;45385.75;;;-144.44;58.12
7836;BME280;3963;42.658;23.298;2023-05-19T09:19:31;45429.25;;;-144.44;55.18
7836;BME280;3963;42.658;23.298;2023-05-19T09:21:59;45423.31;;;-144.44;55.31
7836;BME280;3963;42.658;23.298;2023-05-19T09:24:29;45460.88;;;-144.44;52.72
7836;BME280;3963;42.658;23.298;2023-05-19T09:26:56;45500.38;;;-144.44;50.60
7836;BME280;3963;42.658;23.298;2023-05-19T09:29:23;45537.94;;;-144.44;51.02
7836;BME280;3963;42.658;23.298;2023-05-19T09:31:51;45559.69;;;-144.44;50.11
7836;BME280;3963;42.658;23.298;2023-05-19T09:34:19;45583.41;;;-144.44;47.50
7836;BME280;3963;42.658;23.298;2023-05-19T09:36:47;45615.03;;;-144.44;46.80
7836;BME280;3963;42.658;23.298;2023-05-19T09:39:15;45613.03;;;-144.44;46.72
7836;BME280;3963;42.658;23.298;2023-05-19T09:41:50;45632.81;;;-144.44;46.89
7836;BME280;3963;42.658;23.298;2023-05-19T09:44:21;45666.41;;;-144.44;45.28
7836;BME280;3963;42.658;23.298;2023-05-19T09:46:49;45684.19;;;-144.44;43.78
7836;BME280;3963;42.658;23.298;2023-05-19T09:49:20;45646.66;;;-144.44;44.24
7836;BME280;3963;42.658;23.298;2023-05-19T09:51:49;45664.44;;;-144.44;44.07
7836;BME280;3963;42.658;23.298;2023-05-19T09:54:19;45658.50;;;-144.44;42.93
7836;BME280;3963;42.658;23.298;2023-05-19T09:56:55;45630.84;;;-144.44;42.98
7836;BME280;3963;42.658;23.298;2023-05-19T09:59:23;45618.97;;;-144.44;42.64
7836;BME280;3963;42.658;23.298;2023-05-19T10:01:53;45660.47;;;-144.44;42.44
7836;BME280;3963;42.658;23.298;2023-05-19T10:04:22;45644.66;;;-144.44;40.52
7836;BME280;3963;42.658;23.298;2023-05-19T10:06:51;45642.69;;;-144.44;40.79
7836;BME280;3963;42.658;23.298;2023-05-19T10:09:21;45634.78;;;-144.44;40.67
7836;BME280;3963;42.658;23.298;2023-05-19T10:11:55;45644.66;;;-144.44;40.82
7836;BME280;3963;42.658;23.298;2023-05-19T10:14:24;45646.66;;;-144.44;41.14
7836;BME280;3963;42.658;23.298;2023-05-19T10:16:52;45662.47;;;-144.44;41.34
7836;BME280;3963;42.658;23.298;2023-05-19T10:19:21;45664.44;;;-144.44;40.25
7836;BME280;3963;42.658;23.298;2023-05-19T10:21:49;45690.13;;;-144.44;42.03
7836;BME280;3963;42.658;23.298;2023-05-19T10:24:16;45707.91;;;-144.44;39.29
7836;BME280;3963;42.658;23.298;2023-05-19T10:26:45;45628.84;;;-144.44;39.35
7836;BME280;3963;42.658;23.298;2023-05-19T10:29:22;45603.16;;;-144.44;39.16
7836;BME280;3963;42.658;23.298;2023-05-19T10:31:54;45607.13;;;-144.44;40.31
7836;BME280;3963;42.658;23.298;2023-05-19T10:34:47;45650.59;;;-144.44;39.43
7836;BME280;3963;42.658;23.298;2023-05-19T10:37:30;45630.84;;;-144.44;39.37
7836;BME280;3963;42.658;23.298;2023-05-19T10:40:06;45686.19;;;-144.44;39.46
7836;BME280;3963;42.658;23.298;2023-05-19T10:42:39;45666.41;;;-144.44;37.27
7836;BME280;3963;42.658;23.298;2023-05-19T10:45:16;45617.00;;;-144.44;38.79
7836;BME280;3963;42.658;23.298;2023-05-19T10:47:49;45617.00;;;-144.44;39.12
7836;BME280;3963;42.658;23.298;2023-05-19T10:50:16;45654.56;;;-144.44;37.01
7836;BME280;3963;42.658;23.298;2023-05-19T10:52:52;45622.94;;;-144.44;38.68
7836;BME280;3963;42.658;23.298;2023-05-19T10:55:44;45563.63;;;-144.44;40.33
7836;BME280;3963;42.658;23.298;2023-05-19T10:58:11;45563.63;;;-144.44;41.21
7836;BME280;3963;42.658;23.298;2023-05-19T11:00:40;45516.19;;;-144.44;41.87
7836;BME280;3963;42.658;23.298;2023-05-19T11:03:12;45492.47;;;-144.44;42.52
7836;BME280;3963;42.658;23.298;2023-05-19T11:05:42;45486.56;;;-144.44;43.17
7836;BME280;3963;42.658;23.298;2023-05-19T11:08:16;45516.19;;;-144.44;42.11
7836;BME280;3963;42.658;23.298;2023-05-19T11:11:11;45535.97;;;-144.44;40.08
7836;BME280;3963;42.658;23.298;2023-05-19T11:13:42;45547.81;;;-144.44;40.63
7836;BME280;3963;42.658;23.298;2023-05-19T11:16:18;45571.53;;;-144.44;40.01
7836;BME280;3963;42.658;23.298;2023-05-19T11:18:48;45504.34;;;-144.44;40.07
7836;BME280;3963;42.658;23.298;2023-05-19T11:21:15;45480.63;;;-144.44;41.03
7836;BME280;3963;42.658;23.298;2023-05-19T11:23:45;45478.66;;;-144.44;43.21
7836;BME280;3963;42.658;23.298;2023-05-19T11:26:12;45435.16;;;-144.44;44.53
7836;BME280;3963;42.658;23.298;2023-05-19T11:28:40;45452.97;;;-144.44;44.57
7836;BME280;3963;42.658;23.298;2023-05-19T11:31:07;45488.53;;;-144.44;42.67
7836;BME280;3963;42.658;23.298;2023-05-19T11:33:39;45492.47;;;-144.44;43.70
7836;BME280;3963;42.658;23.298;2023-05-19T11:36:06;45476.66;;;-144.44;41.69
7836;BME280;3963;42.658;23.298;2023-05-19T11:38:34;45492.47;;;-144.44;41.64
7836;BME280;3963;42.658;23.298;2023-05-19T11:41:02;45470.75;;;-144.44;42.16
7836;BME280;3963;42.658;23.298;2023-05-19T11:43:29;45452.97;;;-144.44;42.41
7836;BME280;3963;42.658;23.298;2023-05-19T11:45:56;45454.94;;;-144.44;43.34
7836;BME280;3963;42.658;23.298;2023-05-19T11:48:25;45395.66;;;-144.44;44.39
7836;BME280;3963;42.658;23.298;2023-05-19T11:50:54;45397.63;;;-144.44;45.59
7836;BME280;3963;42.658;23.298;2023-05-19T11:53:24;45362.03;;;-144.44;49.17
7836;BME280;3963;42.658;23.298;2023-05-19T11:55:51;45336.34;;;-144.44;60.54
7836;BME280;3963;42.658;23.298;2023-05-19T11:58:24;45241.50;;;-144.44;63.40
7836;BME280;3963;42.658;23.298;2023-05-19T12:00:54;45275.09;;;-144.44;80.86
7836;BME280;3963;42.658;23.298;2023-05-19T12:03:21;45253.34;;;-144.44;91.48
7836;BME280;3963;42.658;23.298;2023-05-19T12:05:54;45239.50;;;-144.44;88.85
7836;BME280;3963;42.658;23.298;2023-05-19T12:08:21;45239.50;;;-144.44;81.87
7836;BME280;3963;42.658;23.298;2023-05-19T12:10:48;45203.94;;;-144.44;84.72
7836;BME280;3963;42.658;23.298;2023-05-19T12:13:15;45231.59;;;-144.44;87.99
7836;BME280;3963;42.658;23.298;2023-05-19T12:15:43;45227.66;;;-144.44;94.30
7836;BME280;3963;42.658;23.298;2023-05-19T12:18:11;45219.75;;;-144.44;100.00
7836;BME280;3963;42.658;23.298;2023-05-19T12:20:38;45219.75;;;-144.44;100.00
7836;BME280;3963;42.658;23.298;2023-05-19T12:23:06;45334.38;;;-144.44;100.00
7836;BME280;3963;42.658;23.298;2023-05-19T12:25:32;45452.97;;;-144.44;100.00
7836;BME280;3963;42.658;23.298;2023-05-19T12:28:00;45634.78;;;-144.44;100.00
7836;BME280;3963;42.658;23.298;2023-05-19T12:30:29;45609.09;;;-144.44;100.00
7836;BME280;3963;42.658;23.298;2023-05-19T12:32:56;45666.41;;;-144.44;100.00
7836;BME280;3963;42.658;23.298;2023-05-19T12:35:27;45974.75;;;-144.44;100.00
7836;BME280;3963;42.658;23.298;2023-05-19T12:37:54;46075.56;;;-144.44;100.00
7836;BME280;3963;42.658;23.298;2023-05-19T12:40:24;46170.47;;;-144.44;100.00
7836;BME280;3963;42.658;23.298;2023-05-19T12:42:55;45897.66;;;-144.44;100.00
7836;BME280;3963;42.658;23.298;2023-05-19T12:45:23;45723.72;;;-144.44;100.00
7836;BME280;3963;42.658;23.298;2023-05-19T12:47:52;45729.66;;;-144.44;100.00
7836;BME280;3963;42.658;23.298;2023-05-19T12:50:21;45632.81;;;-144.44;100.00
7836;BME280;3963;42.658;23.298;2023-05-19T12:52:49;45470.75;;;-144.44;100.00